Amami Airport


Codes: RJKA/ASJ
Name: Amami Airport
City: Amami
Country: Japan
Elevation: 27 ft.
Wikipedia:

Photos at Amami Airport


   Photos courtesy of SpottingLog. You can add your own sightings and photos by signing up for a free trial today.



No photos found.

Weather at Amami Airport


Time (UTC)DescriptionTempratureWindCloud coverageVisibilityPressureHumidity
16-Jun-2024 00:00Broken Clouds26°C13 mph, W75%10000m1008hPa83%
16-Jun-2024 03:00Broken Clouds26°C13 mph, W83%10000m1008hPa83%
16-Jun-2024 06:00Overcast Clouds26°C9 mph, W92%10000m1009hPa83%
16-Jun-2024 09:00Overcast Clouds26°C7 mph, SW100%10000m1010hPa85%
16-Jun-2024 12:00Overcast Clouds25°C11 mph, W100%10000m1011hPa87%
16-Jun-2024 15:00Light Rain24°C7 mph, W100%10000m1011hPa84%
16-Jun-2024 18:00Light Rain25°C2 mph, W100%10000m1010hPa83%
16-Jun-2024 21:00Light Rain25°C4 mph, S100%3325m1011hPa90%
17-Jun-2024 00:00Moderate Rain26°C7 mph, S100%10000m1011hPa87%
17-Jun-2024 03:00Light Rain26°C7 mph, S100%10000m1010hPa88%
17-Jun-2024 06:00Moderate Rain26°C11 mph, SW100%10000m1008hPa88%
17-Jun-2024 09:00Moderate Rain25°C18 mph, SW100%9948m1009hPa88%
17-Jun-2024 12:00Light Rain25°C20 mph, SW100%10000m1009hPa89%
17-Jun-2024 15:00Light Rain25°C25 mph, SW100%10000m1008hPa91%
17-Jun-2024 18:00Moderate Rain25°C31 mph, SW100%8270m1006hPa90%
17-Jun-2024 21:00Light Rain25°C31 mph, SW100%10000m1006hPa90%
18-Jun-2024 00:00Heavy Intensity Rain25°C27 mph, SW100%4396m1006hPa94%
18-Jun-2024 03:00Heavy Intensity Rain24°C13 mph, W100%4055m1007hPa93%
18-Jun-2024 06:00Light Rain25°C11 mph, NW100%10000m1007hPa79%
18-Jun-2024 09:00Overcast Clouds25°C9 mph, W100%10000m1008hPa77%
18-Jun-2024 12:00Overcast Clouds25°C7 mph, W100%10000m1009hPa78%
18-Jun-2024 15:00Light Rain24°C2 mph, W100%10000m1009hPa87%
18-Jun-2024 18:00Light Rain24°C0 mph, E100%10000m1009hPa89%
18-Jun-2024 21:00Light Rain24°C2 mph, SE100%10000m1009hPa92%
19-Jun-2024 00:00Light Rain25°C9 mph, SW100%10000m1010hPa88%
19-Jun-2024 03:00Light Rain25°C16 mph, SW100%10000m1009hPa88%
19-Jun-2024 06:00Light Rain25°C18 mph, SW100%4946m1008hPa91%
19-Jun-2024 09:00Moderate Rain25°C13 mph, SW100%6338m1009hPa93%
19-Jun-2024 12:00Heavy Intensity Rain23°C7 mph, NE100%2329m1010hPa95%
19-Jun-2024 15:00Heavy Intensity Rain24°C16 mph, SW100%2666m1009hPa94%
19-Jun-2024 18:00Moderate Rain25°C16 mph, SW100%8714m1008hPa90%
19-Jun-2024 21:00Light Rain25°C11 mph, SW100%7854m1009hPa89%
20-Jun-2024 00:00Light Rain25°C11 mph, SW100%10000m1010hPa89%
20-Jun-2024 03:00Light Rain26°C13 mph, SW100%10000m1010hPa87%
20-Jun-2024 06:00Light Rain25°C11 mph, SW100%10000m1010hPa86%
20-Jun-2024 09:00Light Rain25°C11 mph, SW100%10000m1010hPa89%
20-Jun-2024 12:00Light Rain25°C13 mph, S100%10000m1011hPa91%
20-Jun-2024 15:00Light Rain25°C16 mph, SW100%10000m1011hPa92%
20-Jun-2024 18:00Light Rain25°C16 mph, S100%10000m1008hPa88%
20-Jun-2024 21:00Light Rain26°C13 mph, S100%8823m1009hPa88%